createdAt,value
2022-09-07T00:00:20.672Z,9.40
2022-09-07T00:05:46.603Z,9.50
2022-09-07T00:10:57.559Z,9.30
2022-09-07T00:16:05.963Z,9.20
2022-09-07T00:21:10.742Z,9.20
2022-09-07T00:26:15.891Z,9.10
2022-09-07T00:31:24.033Z,8.90
2022-09-07T00:36:26.844Z,8.70
2022-09-07T00:41:29.507Z,8.70
2022-09-07T00:46:32.329Z,8.60
2022-09-07T00:51:44.016Z,8.60
2022-09-07T00:56:48.987Z,8.60
2022-09-07T01:01:54.893Z,8.60
2022-09-07T01:06:57.792Z,8.80
2022-09-07T01:12:02.212Z,8.90
2022-09-07T01:17:14.899Z,8.70
2022-09-07T01:22:26.751Z,8.80
2022-09-07T01:27:50.611Z,8.70
2022-09-07T01:33:07.984Z,8.80
2022-09-07T01:38:37.031Z,8.70
2022-09-07T01:43:48.603Z,8.50
2022-09-07T01:48:54.498Z,8.50
2022-09-07T01:54:01.237Z,8.50
2022-09-07T01:59:08.877Z,8.50
2022-09-07T02:04:31.651Z,8.20
2022-09-07T02:09:51.667Z,8.30
2022-09-07T02:15:02.427Z,8.30
2022-09-07T02:20:15.423Z,8.30
2022-09-07T02:25:24.223Z,8.10
2022-09-07T02:30:26.811Z,8.20
2022-09-07T02:35:29.566Z,8.10
2022-09-07T02:40:32.693Z,7.90
2022-09-07T02:46:02.026Z,8.20
2022-09-07T02:51:10.122Z,8.30
2022-09-07T02:56:15.348Z,8.40
2022-09-07T03:01:39.178Z,8.30
2022-09-07T03:06:50.134Z,8.30
2022-09-07T03:11:52.934Z,8.10
2022-09-07T03:16:56.707Z,8.00
2022-09-07T03:21:59.222Z,7.90
2022-09-07T03:27:02.131Z,7.80
2022-09-07T03:32:05.037Z,7.80
2022-09-07T03:37:07.577Z,7.40
2022-09-07T03:42:10.085Z,7.30
2022-09-07T03:47:13.200Z,7.20
2022-09-07T03:52:15.838Z,7.20
2022-09-07T03:57:20.338Z,7.10
2022-09-07T04:02:23.000Z,7.10
2022-09-07T04:07:25.652Z,7.40
2022-09-07T04:12:28.535Z,7.60
2022-09-07T04:17:31.001Z,7.60
2022-09-07T04:22:33.992Z,7.80
2022-09-07T04:27:36.649Z,8.10
2022-09-07T04:32:39.172Z,8.80
2022-09-07T04:37:41.687Z,9.30
2022-09-07T04:42:44.444Z,9.70
2022-09-07T04:47:48.526Z,10.10
2022-09-07T04:52:50.979Z,10.50
2022-09-07T04:57:53.576Z,10.90
2022-09-07T05:02:56.126Z,11.50
2022-09-07T05:07:58.624Z,11.80
2022-09-07T05:13:01.296Z,12.20
2022-09-07T05:18:05.612Z,12.50
2022-09-07T05:23:08.781Z,11.80
2022-09-07T05:28:15.890Z,10.60
2022-09-07T05:33:21.355Z,10.20
2022-09-07T05:38:25.781Z,11.40
2022-09-07T05:43:29.917Z,11.90
2022-09-07T05:48:32.422Z,11.60
2022-09-07T05:53:40.346Z,11.80
2022-09-07T05:58:42.779Z,12.10
2022-09-07T06:03:45.773Z,12.30
2022-09-07T06:08:53.059Z,12.50
2022-09-07T06:13:55.902Z,12.80
2022-09-07T06:18:58.436Z,13.10
2022-09-07T06:24:00.870Z,13.40
2022-09-07T06:29:03.933Z,13.80
2022-09-07T06:34:06.697Z,14.00
2022-09-07T06:39:09.649Z,14.30
2022-09-07T06:44:12.619Z,14.50
2022-09-07T06:49:15.147Z,14.60
2022-09-07T06:59:40.516Z,14.90
2022-09-07T07:04:43.034Z,15.10
2022-09-07T07:09:45.473Z,15.30
2022-09-07T07:14:48.012Z,15.40
2022-09-07T07:19:50.521Z,15.50
2022-09-07T07:24:53.112Z,15.80
2022-09-07T07:29:55.572Z,15.90
2022-09-07T07:34:58.054Z,16.00
2022-09-07T07:40:17.550Z,16.10
2022-09-07T07:50:44.815Z,16.30
2022-09-07T07:55:47.768Z,16.50
2022-09-07T08:00:54.769Z,16.80
2022-09-07T08:06:08.178Z,16.80
2022-09-07T08:11:19.160Z,16.80
2022-09-07T08:16:21.779Z,17.00
2022-09-07T08:21:25.296Z,17.00
2022-09-07T08:26:28.340Z,17.00
2022-09-07T08:31:33.845Z,17.20
2022-09-07T08:36:36.383Z,17.30
2022-09-07T08:41:57.274Z,17.30
2022-09-07T08:47:25.761Z,17.50
2022-09-07T08:52:38.385Z,17.60
2022-09-07T08:57:47.671Z,17.70
2022-09-07T09:08:35.589Z,17.70
2022-09-07T09:14:01.588Z,18.00
2022-09-07T09:19:24.113Z,18.10
2022-09-07T09:24:36.228Z,18.10
2022-09-07T09:29:38.738Z,18.10
2022-09-07T09:34:58.041Z,18.40
2022-09-07T09:40:03.011Z,18.30
2022-09-07T09:45:16.424Z,18.20
2022-09-07T09:55:54.767Z,18.60
2022-09-07T10:01:22.390Z,18.40
2022-09-07T10:06:25.747Z,18.60
2022-09-07T10:17:18.653Z,18.40
2022-09-07T10:22:36.455Z,18.60
2022-09-07T10:27:40.789Z,18.70
2022-09-07T10:32:58.651Z,18.50
2022-09-07T10:38:17.703Z,18.80
2022-09-07T10:43:50.251Z,18.90
2022-09-07T10:49:04.751Z,18.90
2022-09-07T10:54:30.517Z,19.10
2022-09-07T11:00:10.533Z,19.30
2022-09-07T11:05:48.323Z,17.80
2022-09-07T11:11:00.451Z,19.10
2022-09-07T11:16:50.600Z,19.10
2022-09-07T11:27:24.487Z,19.70
2022-09-07T11:32:46.202Z,20.20
2022-09-07T11:37:59.604Z,20.60
2022-09-07T11:43:28.387Z,20.90
2022-09-07T11:49:04.761Z,21.00
2022-09-07T11:54:20.653Z,20.80
2022-09-07T11:59:36.622Z,20.20
2022-09-07T12:05:04.580Z,20.60
2022-09-07T12:10:26.244Z,20.60
2022-09-07T12:15:45.493Z,21.40
2022-09-07T12:20:49.491Z,21.00
2022-09-07T12:25:52.602Z,20.70
2022-09-07T12:31:00.260Z,20.90
2022-09-07T12:36:28.774Z,20.90
2022-09-07T12:41:43.421Z,20.70
2022-09-07T12:46:51.805Z,20.60
2022-09-07T12:52:34.626Z,20.90
2022-09-07T12:57:36.960Z,20.90
2022-09-07T13:03:04.257Z,20.70
2022-09-07T13:08:25.670Z,20.70
2022-09-07T13:18:52.498Z,20.60
2022-09-07T13:29:40.933Z,20.70
2022-09-07T13:34:48.232Z,20.60
2022-09-07T13:39:54.019Z,20.50
2022-09-07T13:44:58.875Z,20.80
2022-09-07T13:50:24.372Z,21.00
2022-09-07T13:55:41.953Z,20.50
2022-09-07T14:01:13.749Z,20.90
2022-09-07T14:06:22.435Z,20.80
2022-09-07T14:11:35.982Z,20.60
2022-09-07T14:16:38.949Z,20.50
2022-09-07T14:21:41.490Z,20.60
2022-09-07T14:26:50.841Z,20.50
2022-09-07T14:31:54.401Z,20.40
2022-09-07T14:37:01.478Z,20.20
2022-09-07T14:42:05.102Z,20.30
2022-09-07T14:47:21.365Z,20.00
2022-09-07T14:52:35.775Z,20.10
2022-09-07T14:57:40.623Z,20.20
2022-09-07T15:02:43.729Z,20.10
2022-09-07T15:07:51.846Z,20.40
2022-09-07T15:12:58.722Z,20.40
2022-09-07T15:18:25.714Z,20.40
2022-09-07T15:23:28.265Z,20.10
2022-09-07T15:33:55.701Z,20.00
2022-09-07T15:39:00.123Z,19.80
2022-09-07T15:44:03.913Z,20.10
2022-09-07T15:49:07.662Z,20.30
2022-09-07T15:54:14.060Z,20.20
2022-09-07T15:59:16.981Z,20.20
2022-09-07T16:04:19.842Z,20.00
2022-09-07T16:09:22.876Z,20.00
2022-09-07T16:14:25.459Z,19.90
2022-09-07T16:19:27.902Z,19.60
2022-09-07T16:24:30.755Z,19.20
2022-09-07T16:29:33.273Z,19.00
2022-09-07T16:34:35.675Z,18.80
2022-09-07T16:39:38.072Z,18.60
2022-09-07T16:44:40.586Z,18.40
2022-09-07T16:49:43.041Z,18.20
2022-09-07T16:54:45.982Z,18.00
2022-09-07T16:59:48.394Z,17.80
2022-09-07T17:04:51.854Z,17.50
2022-09-07T17:09:55.466Z,17.30
2022-09-07T17:14:57.801Z,16.90
2022-09-07T17:20:00.951Z,16.60
2022-09-07T17:25:03.435Z,16.50
2022-09-07T17:30:06.662Z,16.30
2022-09-07T17:35:09.624Z,16.30
2022-09-07T17:40:12.626Z,16.10
2022-09-07T17:45:15.229Z,15.90
2022-09-07T17:50:18.294Z,15.70
2022-09-07T17:55:22.369Z,15.50
2022-09-07T18:00:24.782Z,15.30
2022-09-07T18:05:27.278Z,15.30
2022-09-07T18:11:45.144Z,15.20
2022-09-07T18:15:56.144Z,15.10
2022-09-07T18:20:58.664Z,14.90
2022-09-07T18:26:01.086Z,14.90
2022-09-07T18:31:06.265Z,14.80
2022-09-07T18:36:10.139Z,14.70
2022-09-07T18:41:14.846Z,14.50
2022-09-07T18:46:20.073Z,14.50
2022-09-07T18:51:22.647Z,14.50
2022-09-07T18:56:25.179Z,14.40
2022-09-07T19:01:28.961Z,14.10
2022-09-07T19:06:31.608Z,14.10
2022-09-07T19:11:34.112Z,14.20
2022-09-07T19:16:36.983Z,14.10
2022-09-07T19:21:42.260Z,14.20
2022-09-07T19:26:47.075Z,14.10
2022-09-07T19:32:13.008Z,14.20
2022-09-07T19:37:15.666Z,14.10
2022-09-07T19:42:18.031Z,14.00
2022-09-07T19:47:21.289Z,13.90
2022-09-07T19:52:23.697Z,13.80
2022-09-07T19:57:26.442Z,13.50
2022-09-07T20:02:28.805Z,13.70
2022-09-07T20:07:31.235Z,13.70
2022-09-07T20:12:33.739Z,13.30
2022-09-07T20:17:37.572Z,13.30
2022-09-07T20:22:40.216Z,13.60
2022-09-07T20:27:42.667Z,13.70
2022-09-07T20:32:45.141Z,13.80
2022-09-07T20:37:48.314Z,13.70
2022-09-07T20:42:50.808Z,13.60
2022-09-07T20:47:53.522Z,13.50
2022-09-07T20:52:56.017Z,13.50
2022-09-07T20:57:58.574Z,13.40
2022-09-07T21:03:01.115Z,13.30
2022-09-07T21:08:03.777Z,13.40
2022-09-07T21:13:06.490Z,13.40
2022-09-07T21:18:14.870Z,13.40
2022-09-07T21:23:17.230Z,13.40
2022-09-07T21:28:19.716Z,13.20
2022-09-07T21:33:22.126Z,13.10
2022-09-07T21:38:24.570Z,15.10
2022-09-07T21:43:27.057Z,13.00
2022-09-07T21:48:30.829Z,13.00
2022-09-07T21:53:33.999Z,12.90
2022-09-07T21:58:36.542Z,12.90
2022-09-07T22:03:43.097Z,12.80
2022-09-07T22:08:45.419Z,12.70
2022-09-07T22:13:48.182Z,12.70
2022-09-07T22:18:50.813Z,12.60
2022-09-07T22:23:56.668Z,12.60
2022-09-07T22:28:59.587Z,12.60
2022-09-07T22:34:04.612Z,12.60
2022-09-07T22:39:11.720Z,12.60
2022-09-07T22:44:16.628Z,12.40
2022-09-07T22:49:19.366Z,12.40
2022-09-07T22:54:21.753Z,12.40
2022-09-07T22:59:24.140Z,12.50
2022-09-07T23:04:31.059Z,12.50
2022-09-07T23:09:34.204Z,12.50
2022-09-07T23:14:36.842Z,12.80
2022-09-07T23:19:39.245Z,12.80
2022-09-07T23:24:41.788Z,12.70
2022-09-07T23:29:44.348Z,12.50
2022-09-07T23:34:47.397Z,12.50
2022-09-07T23:39:49.851Z,12.30
2022-09-07T23:44:52.642Z,12.10
2022-09-07T23:49:54.983Z,12.20
2022-09-07T23:55:00.116Z,12.30
